Time;durP1;ratioP1;P1;durP2;ratioP2;P2;SDS_P1;SDS_P2;PMS_P1;PMS_P2;Temp;Humidity;BMP_temperature;BMP_pressure;BME280_temperature;BME280_humidity;BME280_pressure;Samples;Min_cycle;Max_cycle;Signal;HPM_P1;HPM_P2
2022/11/05 00:09:33;;;;;;;4.97;3.17;;;;;;;8.41;100.00;98472.78;6172605;23;20212;-58
2022/11/05 00:17:33;;;;;;;6.43;3.10;;;;;;;8.42;100.00;98472.66;6172549;23;20216;-59
2022/11/05 00:19:59;;;;;;;4.87;3.10;;;;;;;8.44;100.00;98471.69;6176029;23;20199;-59
2022/11/05 00:25:15;;;;;;;3.23;2.50;;;;;;;8.42;100.00;98475.25;6175165;23;20515;-59
2022/11/05 00:27:43;;;;;;;3.73;2.53;;;;;;;8.46;100.00;98474.97;6173859;23;20222;-58
2022/11/05 00:30:12;;;;;;;4.13;2.67;;;;;;;8.46;100.00;98477.56;6175214;23;20204;-59
2022/11/05 00:32:39;;;;;;;5.50;3.20;;;;;;;8.47;100.00;98479.22;6173516;23;20288;-59
2022/11/05 00:35:07;;;;;;;3.53;3.00;;;;;;;8.48;100.00;98484.25;6175643;23;20763;-58
2022/11/05 00:37:34;;;;;;;4.73;2.97;;;;;;;8.48;100.00;98478.25;6172045;23;20258;-58
2022/11/05 00:40:00;;;;;;;6.03;3.03;;;;;;;8.47;100.00;98479.22;6176518;23;20204;-59
2022/11/05 00:45:13;;;;;;;5.80;3.10;;;;;;;8.41;100.00;98483.19;6175065;23;20211;-59
2022/11/05 00:50:24;;;;;;;4.43;3.57;;;;;;;8.44;100.00;98490.72;6172318;23;20195;-59
2022/11/05 00:52:58;;;;;;;8.37;4.30;;;;;;;8.42;100.00;98492.63;6175991;23;20199;-58
2022/11/05 00:55:28;;;;;;;7.50;4.50;;;;;;;8.38;100.00;98486.06;6171319;23;20207;-60
2022/11/05 00:57:55;;;;;;;7.10;4.17;;;;;;;8.39;100.00;98495.50;6174546;23;20278;-59
2022/11/05 01:00:24;;;;;;;7.20;4.73;;;;;;;8.37;100.00;98498.28;6171961;23;20204;-58
2022/11/05 01:02:50;;;;;;;5.60;4.60;;;;;;;8.35;100.00;98491.53;6175876;23;20254;-59
2022/11/05 01:05:17;;;;;;;7.73;5.47;;;;;;;8.39;100.00;98496.34;6171363;23;20263;-59
2022/11/05 01:07:43;;;;;;;9.20;6.13;;;;;;;8.36;100.00;98507.03;6174998;23;20205;-58
2022/11/05 01:10:10;;;;;;;8.23;6.10;;;;;;;8.29;100.00;98505.94;6174545;23;20203;-60
2022/11/05 01:12:36;;;;;;;8.03;5.97;;;;;;;8.32;100.00;98500.47;6173013;23;20724;-59
2022/11/05 01:15:04;;;;;;;8.03;5.57;;;;;;;8.30;100.00;98507.59;6175554;23;20654;-58
2022/11/05 01:17:31;;;;;;;7.73;5.83;;;;;;;8.27;100.00;98510.47;6171564;23;20581;-60
2022/11/05 01:19:58;;;;;;;7.83;6.13;;;;;;;8.27;100.00;98510.47;6175340;23;20208;-59
2022/11/05 01:22:25;;;;;;;9.23;6.30;;;;;;;8.31;100.00;98509.22;6171787;23;20208;-60
2022/11/05 01:24:51;;;;;;;10.43;6.70;;;;;;;8.32;100.00;98503.06;6175788;23;20254;-59
2022/11/05 01:27:18;;;;;;;10.77;6.37;;;;;;;8.30;100.00;98510.19;6171420;23;20199;-59
2022/11/05 01:29:44;;;;;;;11.43;5.90;;;;;;;8.30;100.00;98514.56;6175854;23;20245;-59
2022/11/05 01:32:11;;;;;;;13.67;6.37;;;;;;;8.35;100.00;98514.97;6174839;23;20208;-59
2022/11/05 01:34:39;;;;;;;11.73;6.30;;;;;;;8.34;100.00;98508.94;6147157;23;20203;-60
2022/11/05 01:37:05;;;;;;;9.93;7.10;;;;;;;8.34;100.00;98515.91;6175553;23;20246;-59
2022/11/05 01:39:32;;;;;;;9.27;7.00;;;;;;;8.32;100.00;98520.44;6171894;23;20211;-60
2022/11/05 01:41:58;;;;;;;8.50;6.60;;;;;;;8.30;100.00;98523.19;6175731;23;20236;-60
2022/11/05 01:44:57;;;;;;;8.93;7.13;;;;;;;8.27;100.00;98519.06;6171880;23;20208;-59
2022/11/05 01:47:29;;;;;;;12.27;6.63;;;;;;;8.27;100.00;98520.88;6171223;23;20658;-59
2022/11/05 01:50:00;;;;;;;9.70;6.00;;;;;;;8.26;100.00;98525.22;6149121;23;20212;-60
2022/11/05 01:52:28;;;;;;;8.27;5.83;;;;;;;8.29;100.00;98521.53;6171679;23;20232;-59
2022/11/05 01:54:56;;;;;;;10.93;6.33;;;;;;;8.30;100.00;98527.56;6176010;23;20585;-60
2022/11/05 01:57:22;;;;;;;9.57;5.57;;;;;;;8.31;100.00;98529.19;6171720;23;20208;-60
2022/11/05 01:59:53;;;;;;;7.47;4.93;;;;;;;8.32;100.00;98517.84;6175731;23;20265;-60
2022/11/05 02:02:21;;;;;;;9.00;5.40;;;;;;;8.37;100.00;98526.03;6171428;23;20209;-60
2022/11/05 02:04:52;;;;;;;6.20;4.60;;;;;;;8.35;100.00;98522.75;6175224;23;20223;-59
2022/11/05 02:07:23;;;;;;;5.77;4.33;;;;;;;8.34;100.00;98526.31;6171567;23;20196;-60
2022/11/05 02:09:56;;;;;;;6.63;4.57;;;;;;;8.33;100.00;98527.28;6175446;23;20195;-59
2022/11/05 02:12:23;;;;;;;6.87;4.93;;;;;;;8.34;100.00;98532.34;6171254;23;20208;-59
2022/11/05 02:14:49;;;;;;;11.00;5.23;;;;;;;8.32;100.00;98523.03;6175416;23;20226;-59
2022/11/05 02:17:26;;;;;;;7.37;4.40;;;;;;;8.34;100.00;98532.34;6171017;23;20205;-60
2022/11/05 02:20:20;;;;;;;7.13;4.60;;;;;;;8.38;100.00;98535.47;6148904;23;20650;-59
2022/11/05 02:23:27;;;;;;;5.37;4.43;;;;;;;8.33;100.00;98538.50;6167429;23;20219;-59
2022/11/05 02:26:29;;;;;;;7.63;4.90;;;;;;;8.31;100.00;98540.44;6171858;23;20207;-59
2022/11/05 02:29:22;;;;;;;6.20;4.40;;;;;;;8.37;100.00;98544.25;6147437;23;20207;-60
2022/11/05 02:31:58;;;;;;;6.83;4.50;;;;;;;8.30;100.00;98545.75;6171749;23;20219;-59
2022/11/05 02:34:33;;;;;;;5.27;3.87;;;;;;;8.27;100.00;98546.88;6171401;23;20201;-61
2022/11/05 02:37:09;;;;;;;7.60;4.53;;;;;;;8.30;100.00;98553.56;6174595;23;20230;-61
2022/11/05 02:39:42;;;;;;;5.80;3.67;;;;;;;8.30;100.00;98559.59;6171229;23;20650;-61
2022/11/05 02:42:17;;;;;;;6.60;3.77;;;;;;;8.24;100.00;98544.53;6175287;23;20204;-61
2022/11/05 02:44:52;;;;;;;6.30;3.93;;;;;;;8.27;100.00;98554.66;6172267;23;20211;-60
2022/11/05 02:47:26;;;;;;;4.37;3.27;;;;;;;8.22;100.00;98547.25;6170727;23;20191;-60
2022/11/05 02:50:03;;;;;;;6.00;3.57;;;;;;;8.21;100.00;98552.63;6175480;23;20204;-59
2022/11/05 02:52:37;;;;;;;5.43;3.50;;;;;;;8.20;100.00;98558.78;6170837;23;20203;-60
2022/11/05 02:55:12;;;;;;;6.20;3.60;;;;;;;8.21;100.00;98550.81;6175163;23;20201;-60
2022/11/05 02:57:43;;;;;;;5.37;4.03;;;;;;;8.20;100.00;98559.59;6171922;23;20215;-59
2022/11/05 03:00:43;;;;;;;5.33;3.70;;;;;;;8.18;100.00;98564.09;6173516;23;20212;-61
2022/11/05 03:03:16;;;;;;;5.17;4.07;;;;;;;8.11;100.00;98566.44;6170644;23;20255;-61
2022/11/05 03:05:55;;;;;;;5.03;3.67;;;;;;;8.17;100.00;98572.06;6171442;23;20207;-59
2022/11/05 03:08:32;;;;;;;5.43;4.00;;;;;;;8.18;100.00;98564.09;6169990;23;20254;-59
2022/11/05 03:11:04;;;;;;;5.47;4.30;;;;;;;8.18;100.00;98573.69;6174351;23;20217;-60
2022/11/05 03:13:41;;;;;;;5.00;4.27;;;;;;;8.16;100.00;98573.81;6170387;23;20211;-60
2022/11/05 03:16:16;;;;;;;11.87;5.53;;;;;;;8.15;100.00;98574.78;6174105;23;20207;-58
2022/11/05 03:18:49;;;;;;;8.00;5.60;;;;;;;8.20;100.00;98575.19;6172419;23;20215;-59
2022/11/05 03:21:21;;;;;;;9.07;6.20;;;;;;;8.16;100.00;98573.81;6172217;23;20274;-58
2022/11/05 03:23:53;;;;;;;10.73;6.33;;;;;;;8.16;100.00;98578.22;6176169;23;20274;-59
2022/11/05 03:26:26;;;;;;;11.67;6.53;;;;;;;8.19;100.00;98580.53;6172470;23;20204;-59
2022/11/05 03:28:56;;;;;;;11.13;6.60;;;;;;;8.19;100.00;98580.53;6176445;23;20203;-59
2022/11/05 03:31:25;;;;;;;9.60;6.73;;;;;;;8.21;100.00;98582.03;6172945;23;20275;-59
2022/11/05 03:33:55;;;;;;;12.43;7.30;;;;;;;8.23;100.00;98581.91;6176397;23;20199;-59
2022/11/05 03:36:26;;;;;;;13.33;8.30;;;;;;;8.19;100.00;98596.94;6172334;23;20196;-60
2022/11/05 03:38:55;;;;;;;15.07;9.30;;;;;;;8.20;100.00;98601.19;6176772;23;20204;-59
2022/11/05 03:41:24;;;;;;;15.03;9.87;;;;;;;8.22;100.00;98595.88;6172485;23;20211;-59
2022/11/05 03:43:56;;;;;;;15.60;9.97;;;;;;;8.19;100.00;98601.34;6176405;23;20203;-59
2022/11/05 03:46:27;;;;;;;15.33;10.43;;;;;;;8.20;100.00;98597.78;6172420;23;20271;-59
2022/11/05 03:48:57;;;;;;;16.83;10.33;;;;;;;8.23;100.00;98611.31;6177265;23;20847;-59
2022/11/05 03:51:32;;;;;;;14.00;9.20;;;;;;;8.26;100.00;98612.84;6172554;23;20642;-58
2022/11/05 03:54:02;;;;;;;14.53;8.37;;;;;;;8.25;100.00;98616.41;6176293;23;20517;-59
2022/11/05 03:56:34;;;;;;;9.83;7.33;;;;;;;8.25;100.00;98616.41;6172481;23;20509;-59
2022/11/05 03:59:02;;;;;;;12.00;7.43;;;;;;;8.23;100.00;98620.91;6176528;23;20553;-59
2022/11/05 04:01:30;;;;;;;10.27;6.93;;;;;;;8.22;100.00;98640.88;6172429;23;20724;-62
2022/11/05 04:03:57;;;;;;;9.10;6.97;;;;;;;8.20;100.00;98636.78;6176837;23;20251;-59
2022/11/05 04:14:38;;;;;;;13.53;8.00;;;;;;;8.12;100.00;98648.69;6173851;23;20214;-60
2022/11/05 04:17:08;;;;;;;11.13;7.50;;;;;;;8.11;100.00;98649.63;6175617;23;20196;-59
2022/11/05 04:25:07;;;;;;;9.60;6.57;;;;;;;8.02;100.00;98657.41;6175309;23;20207;-59
2022/11/05 04:27:33;;;;;;;10.27;6.57;;;;;;;8.04;100.00;98658.09;6171414;23;20266;-60
2022/11/05 04:32:58;;;;;;;12.23;7.97;;;;;;;8.07;100.00;98653.47;6171211;23;20718;-65
2022/11/05 04:35:28;;;;;;;13.20;9.20;;;;;;;8.02;100.00;98650.44;6171949;23;20241;-65
2022/11/05 04:37:55;;;;;;;13.37;8.30;;;;;;;8.08;100.00;98655.09;6176326;23;20270;-64
2022/11/05 04:40:21;;;;;;;11.63;8.20;;;;;;;8.09;100.00;98661.94;6172925;23;20215;-64
2022/11/05 04:42:48;;;;;;;11.43;8.43;;;;;;;8.07;100.00;98663.84;6176214;23;20258;-64
2022/11/05 04:45:14;;;;;;;14.43;9.07;;;;;;;8.07;100.00;98661.25;6172237;23;20262;-64
2022/11/05 04:47:41;;;;;;;13.17;8.23;;;;;;;8.07;100.00;98663.03;6176271;23;20210;-64
2022/11/05 04:50:09;;;;;;;14.27;9.17;;;;;;;8.08;100.00;98667.25;6175383;23;20236;-64
2022/11/05 04:52:37;;;;;;;13.67;8.10;;;;;;;8.17;100.00;98678.66;6172533;23;20262;-64
2022/11/05 04:55:04;;;;;;;13.23;9.30;;;;;;;8.18;100.00;98675.09;6176109;23;20210;-64
2022/11/05 04:57:31;;;;;;;11.73;8.63;;;;;;;8.12;100.00;98674.69;6172556;23;20715;-64
2022/11/05 04:59:57;;;;;;;13.83;10.00;;;;;;;8.17;100.00;98681.25;6175768;23;20658;-64
2022/11/05 05:02:24;;;;;;;13.20;9.13;;;;;;;8.18;100.00;98681.09;6172168;23;20254;-64
2022/11/05 05:04:51;;;;;;;17.97;11.13;;;;;;;8.17;100.00;98674.25;6175960;23;20571;-64
2022/11/05 05:07:18;;;;;;;20.97;11.57;;;;;;;8.19;100.00;98681.94;6171963;23;20253;-64
2022/11/05 05:09:45;;;;;;;18.73;11.43;;;;;;;8.19;100.00;98685.34;6176076;23;20210;-64
2022/11/05 05:12:12;;;;;;;20.13;11.17;;;;;;;8.24;100.00;98693.56;6172156;23;20266;-64
2022/11/05 05:14:38;;;;;;;21.30;13.37;;;;;;;8.21;100.00;98695.63;6175979;23;20207;-65
2022/11/05 05:17:05;;;;;;;24.17;13.87;;;;;;;8.20;100.00;98699.19;6175477;23;20253;-64
2022/11/05 05:21:37;;;;;;;21.90;13.43;;;;;;;8.16;100.00;98700.41;6171440;23;21342;-64
2022/11/05 05:22:17;;;;;;;19.93;12.13;;;;;;;8.19;100.00;98710.53;6171673;23;20680;-64
2022/11/05 05:24:45;;;;;;;21.43;12.13;;;;;;;8.16;100.00;98714.22;6175854;23;20195;-64
2022/11/05 05:27:12;;;;;;;21.30;12.73;;;;;;;8.17;100.00;98723.66;6172430;23;20214;-64
2022/11/05 05:29:38;;;;;;;22.37;13.27;;;;;;;8.15;100.00;98730.78;6175750;23;20205;-64
2022/11/05 05:32:06;;;;;;;26.00;12.63;;;;;;;8.17;100.00;98726.25;6175795;23;20209;-64
2022/11/05 05:34:32;;;;;;;20.07;11.53;;;;;;;8.17;100.00;98738.47;6172193;23;20212;-64
2022/11/05 05:36:59;;;;;;;19.67;12.47;;;;;;;8.14;100.00;98739.53;6175460;23;20206;-64
2022/11/05 05:39:26;;;;;;;19.10;11.13;;;;;;;8.14;100.00;98742.13;6171496;23;20204;-64
2022/11/05 05:41:54;;;;;;;24.57;13.20;;;;;;;8.17;100.00;98751.47;6174835;23;20209;-64
2022/11/05 05:44:21;;;;;;;24.37;12.67;;;;;;;8.17;100.00;98748.84;6172031;23;20685;-64
2022/11/05 05:46:47;;;;;;;21.03;12.57;;;;;;;8.16;100.00;98749.81;6175272;23;20650;-65
2022/11/05 05:49:14;;;;;;;22.10;12.30;;;;;;;8.15;100.00;98751.56;6171913;23;20200;-65
2022/11/05 05:51:41;;;;;;;17.80;11.73;;;;;;;8.10;100.00;98746.78;6175267;23;20207;-65
2022/11/05 05:54:07;;;;;;;20.70;11.87;;;;;;;8.09;100.00;98755.53;6175385;23;20203;-65
2022/11/05 05:56:34;;;;;;;20.50;11.97;;;;;;;8.07;100.00;98754.84;6171608;23;20254;-65
2022/11/05 05:59:02;;;;;;;20.40;11.37;;;;;;;8.05;100.00;98754.16;6175126;23;20207;-65
2022/11/05 06:01:28;;;;;;;19.73;11.90;;;;;;;8.06;100.00;98763.59;6171951;23;20205;-64
2022/11/05 06:03:55;;;;;;;18.57;11.67;;;;;;;8.03;100.00;98758.66;6149450;23;20196;-64
2022/11/05 06:06:21;;;;;;;20.37;11.43;;;;;;;8.06;100.00;98770.56;6145096;23;20208;-64
2022/11/05 06:08:48;;;;;;;17.33;11.13;;;;;;;8.09;100.00;98765.09;6175050;23;20645;-65
2022/11/05 06:11:15;;;;;;;17.87;10.67;;;;;;;8.11;100.00;98781.38;6171578;23;20296;-64
2022/11/05 06:13:42;;;;;;;21.57;10.57;;;;;;;8.07;100.00;98777.41;6174907;23;20203;-64
2022/11/05 06:16:10;;;;;;;14.97;9.50;;;;;;;8.02;100.00;98780.41;6174824;23;20207;-64
2022/11/05 06:18:37;;;;;;;17.73;10.07;;;;;;;7.99;100.00;98783.28;6171981;23;20243;-64
2022/11/05 06:21:05;;;;;;;15.47;9.57;;;;;;;8.03;100.00;98787.25;6175310;23;20203;-64
2022/11/05 06:23:31;;;;;;;14.50;8.40;;;;;;;8.00;100.00;98792.72;6171799;23;20309;-64
2022/11/05 06:26:01;;;;;;;13.97;7.40;;;;;;;7.94;100.00;98799.28;6174957;23;20209;-64
2022/11/05 06:28:29;;;;;;;10.27;7.00;;;;;;;7.81;100.00;98799.47;6171497;23;20196;-64
2022/11/05 06:30:55;;;;;;;10.77;7.10;;;;;;;7.88;100.00;98799.78;6148763;23;20219;-64
2022/11/05 06:33:23;;;;;;;10.27;6.63;;;;;;;7.91;100.00;98804.72;6171515;23;20211;-64
2022/11/05 06:35:50;;;;;;;12.87;7.07;;;;;;;7.87;100.00;98808.53;6174925;23;20230;-64
2022/11/05 06:38:17;;;;;;;10.87;6.77;;;;;;;7.89;100.00;98816.19;6171478;23;20204;-64
2022/11/05 06:40:43;;;;;;;13.77;7.53;;;;;;;7.91;100.00;98817.72;6175158;23;20258;-64
2022/11/05 06:43:10;;;;;;;11.53;6.50;;;;;;;7.95;100.00;98826.06;6174953;23;20207;-64
2022/11/05 06:45:37;;;;;;;14.13;8.07;;;;;;;7.94;100.00;98825.28;6171580;23;20677;-64
2022/11/05 06:48:04;;;;;;;229.00;155.57;;;;;;;7.95;100.00;98832.09;6175203;23;20868;-65
2022/11/05 06:50:32;;;;;;;22.30;14.70;;;;;;;7.95;100.00;98833.88;6171219;23;20562;-65
2022/11/05 06:53:00;;;;;;;12.67;9.40;;;;;;;7.95;100.00;98844.28;6174684;23;20262;-64
2022/11/05 06:55:28;;;;;;;14.00;9.10;;;;;;;7.95;100.00;98842.47;6171219;23;20211;-64
2022/11/05 06:57:55;;;;;;;11.27;8.27;;;;;;;7.98;100.00;98854.41;6174879;23;20728;-64
2022/11/05 07:00:22;;;;;;;11.57;7.13;;;;;;;7.99;100.00;98853.47;6171328;23;20205;-64
2022/11/05 07:02:49;;;;;;;11.87;6.80;;;;;;;7.97;100.00;98848.38;6148836;23;20199;-64
2022/11/05 07:05:16;;;;;;;10.23;6.17;;;;;;;8.02;100.00;98865.38;6171070;23;20313;-64
2022/11/05 07:07:45;;;;;;;8.23;5.30;;;;;;;8.01;100.00;98858.50;6175065;23;20206;-64
2022/11/05 07:10:15;;;;;;;8.87;5.27;;;;;;;7.97;100.00;98865.75;6173890;23;20207;-64
2022/11/05 07:12:41;;;;;;;8.27;6.00;;;;;;;8.00;100.00;98873.31;6172351;23;20258;-64
2022/11/05 07:15:09;;;;;;;8.67;4.97;;;;;;;8.06;100.00;98877.16;6174684;23;20203;-64
2022/11/05 07:17:36;;;;;;;5.47;3.90;;;;;;;8.01;100.00;98885.34;6171268;23;20682;-65
2022/11/05 07:20:03;;;;;;;6.73;4.33;;;;;;;8.03;100.00;98886.03;6174910;23;20429;-65
2022/11/05 07:22:29;;;;;;;5.70;4.03;;;;;;;8.07;100.00;98892.63;6171257;23;20205;-65
2022/11/05 07:24:57;;;;;;;9.77;4.53;;;;;;;8.09;100.00;98898.53;6174922;23;20199;-65
2022/11/05 07:27:24;;;;;;;5.53;4.03;;;;;;;8.06;100.00;98898.78;6171046;23;20585;-65
2022/11/05 07:29:50;;;;;;;6.07;3.60;;;;;;;8.08;100.00;98901.25;6174858;23;20199;-65
2022/11/05 07:32:17;;;;;;;8.07;5.13;;;;;;;8.13;100.00;98901.69;6169287;23;20207;-65
2022/11/05 07:34:44;;;;;;;17.33;12.57;;;;;;;8.11;100.00;98901.84;6174822;23;20199;-64
2022/11/05 07:37:10;;;;;;;41.50;24.57;;;;;;;8.13;100.00;98909.50;6174684;23;20542;-64
2022/11/05 07:39:37;;;;;;;19.43;12.37;;;;;;;8.13;100.00;98907.72;6171389;23;20210;-64
2022/11/05 07:42:05;;;;;;;10.20;6.57;;;;;;;8.18;100.00;98911.72;6174558;23;20230;-64
2022/11/05 07:44:33;;;;;;;8.70;4.90;;;;;;;8.23;100.00;98919.97;6169391;23;20203;-64
2022/11/05 07:47:00;;;;;;;9.90;6.07;;;;;;;8.27;100.00;98918.75;6148110;23;20195;-64
2022/11/05 07:49:26;;;;;;;8.47;4.63;;;;;;;8.30;100.00;98926.31;6171093;23;20253;-64
2022/11/05 07:51:53;;;;;;;6.17;4.10;;;;;;;8.33;100.00;98926.03;6174911;23;20200;-64
2022/11/05 07:54:20;;;;;;;7.03;4.47;;;;;;;8.38;100.00;98931.69;6171012;23;20279;-64
2022/11/05 07:56:46;;;;;;;7.70;4.20;;;;;;;8.40;100.00;98932.38;6174584;23;20199;-64
2022/11/05 07:59:14;;;;;;;6.43;4.90;;;;;;;8.43;100.00;98939.09;6170882;23;20515;-64
2022/11/05 08:01:41;;;;;;;8.17;3.60;;;;;;;8.50;100.00;98949.81;6175008;23;20211;-64
2022/11/05 08:04:07;;;;;;;6.77;3.30;;;;;;;8.37;100.00;98944.81;6176102;23;20328;-64
2022/11/05 08:06:34;;;;;;;14.47;8.33;;;;;;;8.33;100.00;98943.41;6172781;23;20605;-64
2022/11/05 08:09:00;;;;;;;29.10;15.63;;;;;;;8.35;100.00;98944.94;6176178;23;20673;-64
2022/11/05 08:11:27;;;;;;;27.60;18.03;;;;;;;8.44;100.00;98955.53;6173031;23;20226;-64
2022/11/05 08:13:54;;;;;;;15.87;10.60;;;;;;;8.44;100.00;98952.94;6176784;23;20204;-64
2022/11/05 08:16:21;;;;;;;8.20;7.07;;;;;;;8.40;100.00;98955.78;6172786;23;20216;-64
2022/11/05 08:18:48;;;;;;;16.67;10.73;;;;;;;8.42;100.00;98956.50;6176689;23;20294;-64
2022/11/05 08:21:14;;;;;;;9.57;7.23;;;;;;;8.37;100.00;98961.25;6172499;23;20744;-64
2022/11/05 08:23:41;;;;;;;7.90;5.50;;;;;;;8.47;100.00;98963.09;6176816;23;20207;-64
2022/11/05 08:26:08;;;;;;;11.50;7.07;;;;;;;8.49;100.00;98961.19;6176408;23;20279;-64
2022/11/05 08:28:35;;;;;;;12.60;8.80;;;;;;;8.39;100.00;98969.75;6172988;23;20227;-64
2022/11/05 08:31:01;;;;;;;11.37;8.20;;;;;;;8.45;100.00;98962.38;6176310;23;20208;-64
2022/11/05 08:33:30;;;;;;;14.63;7.73;;;;;;;8.47;100.00;98970.88;6172833;23;20578;-64
2022/11/05 08:36:01;;;;;;;12.37;8.03;;;;;;;8.54;100.00;98975.47;6175903;23;20250;-64
2022/11/05 08:38:27;;;;;;;16.03;9.07;;;;;;;8.42;100.00;98977.31;6172808;23;20204;-64
2022/11/05 08:40:56;;;;;;;16.63;9.93;;;;;;;8.54;100.00;98972.03;6176151;23;20203;-64
2022/11/05 08:43:23;;;;;;;14.57;8.50;;;;;;;8.57;100.00;98976.97;6172436;23;20204;-65
2022/11/05 08:45:50;;;;;;;14.47;8.73;;;;;;;8.54;100.00;98983.28;6176070;23;20234;-64
2022/11/05 08:48:18;;;;;;;20.30;10.57;;;;;;;8.49;100.00;98979.38;6172775;23;20246;-64
2022/11/05 08:50:47;;;;;;;22.83;11.10;;;;;;;8.50;100.00;98983.63;6176121;23;20254;-64
2022/11/05 08:53:15;;;;;;;17.43;10.17;;;;;;;8.38;100.00;98988.91;6172548;23;20196;-64
2022/11/05 08:55:42;;;;;;;20.57;10.80;;;;;;;8.40;100.00;98999.19;6176135;23;20200;-64
2022/11/05 08:58:11;;;;;;;19.00;11.00;;;;;;;8.45;100.00;98988.41;6176178;23;20520;-64
2022/11/05 09:00:38;;;;;;;23.43;11.23;;;;;;;8.45;100.00;98993.59;6172777;23;20223;-64
2022/11/05 09:03:07;;;;;;;17.13;10.27;;;;;;;8.54;100.00;98998.03;6176125;23;20207;-64
2022/11/05 09:05:36;;;;;;;21.50;11.70;;;;;;;8.53;100.00;98992.03;6172362;23;20586;-64
2022/11/05 09:08:05;;;;;;;17.40;10.27;;;;;;;8.72;100.00;98995.69;6149580;23;20250;-64
2022/11/05 09:10:31;;;;;;;24.87;14.23;;;;;;;8.90;100.00;98993.28;6172456;23;20212;-64
2022/11/05 09:12:58;;;;;;;21.27;13.30;;;;;;;9.04;100.00;98996.50;6175621;23;20251;-64
2022/11/05 09:15:25;;;;;;;19.23;10.27;;;;;;;9.15;100.00;98999.00;6171718;23;20204;-64
2022/11/05 09:17:51;;;;;;;18.43;11.47;;;;;;;9.19;100.00;98996.94;6176118;23;20200;-64
2022/11/05 09:20:18;;;;;;;21.33;12.03;;;;;;;9.24;100.00;98999.97;6172266;23;20599;-64
2022/11/05 09:22:45;;;;;;;19.47;11.37;;;;;;;9.22;100.00;99012.31;6176035;23;20208;-64
2022/11/05 09:25:14;;;;;;;18.03;10.97;;;;;;;9.31;100.00;99014.13;6174935;23;20250;-64
2022/11/05 09:27:41;;;;;;;22.07;12.10;;;;;;;9.25;100.00;99015.50;6173486;23;20205;-64
2022/11/05 09:30:10;;;;;;;18.97;11.93;;;;;;;9.08;100.00;99011.72;6175937;23;20196;-64
2022/11/05 09:32:37;;;;;;;27.87;12.97;;;;;;;9.12;100.00;99022.72;6172394;23;20211;-64
2022/11/05 09:35:04;;;;;;;22.70;11.77;;;;;;;9.19;100.00;99029.03;6174965;23;20208;-64
2022/11/05 09:37:31;;;;;;;18.63;11.60;;;;;;;9.34;100.00;99028.66;6172189;23;20625;-64
2022/11/05 09:39:57;;;;;;;18.10;11.27;;;;;;;9.47;100.00;99031.03;6175483;23;20216;-64
2022/11/05 09:42:30;;;;;;;29.77;13.77;;;;;;;9.38;100.00;99036.06;6172024;23;20215;-64
2022/11/05 09:44:59;;;;;;;26.17;13.47;;;;;;;9.30;100.00;99031.53;6176074;23;20200;-64
2022/11/05 09:47:32;;;;;;;22.47;13.47;;;;;;;9.60;100.00;99035.03;6170972;23;20208;-64
2022/11/05 09:50:02;;;;;;;24.13;12.53;;;;;;;9.80;98.84;99035.06;6175986;23;20250;-64
2022/11/05 09:52:33;;;;;;;21.57;12.00;;;;;;;9.81;99.01;99031.50;6171565;23;20209;-64
2022/11/05 09:55:02;;;;;;;21.80;12.97;;;;;;;9.83;98.63;99036.59;6175394;23;20209;-64
2022/11/05 09:57:37;;;;;;;21.57;11.57;;;;;;;9.56;98.28;99040.66;6171714;23;20274;-64
2022/11/05 10:00:08;;;;;;;25.27;12.47;;;;;;;9.72;97.30;99035.75;6175544;23;20974;-64
2022/11/05 10:02:43;;;;;;;21.07;12.23;;;;;;;9.43;98.09;99043.50;6171918;23;20219;-64
2022/11/05 10:05:12;;;;;;;24.57;13.23;;;;;;;9.41;98.82;99040.22;6175321;23;20207;-64
2022/11/05 10:07:45;;;;;;;19.87;12.37;;;;;;;9.59;98.24;99046.41;6170867;23;20212;-64
2022/11/05 10:10:23;;;;;;;20.20;12.77;;;;;;;9.47;99.40;99044.91;6172709;23;20543;-65
2022/11/05 10:12:55;;;;;;;22.10;12.33;;;;;;;9.59;98.62;99049.00;6173322;23;20650;-64
2022/11/05 10:15:26;;;;;;;20.00;11.77;;;;;;;9.77;98.29;99044.94;6145580;23;20216;-64
2022/11/05 10:17:57;;;;;;;19.73;11.20;;;;;;;9.91;96.04;99044.56;6175656;23;20196;-64
2022/11/05 10:20:32;;;;;;;19.53;12.07;;;;;;;9.77;95.50;99057.97;6171161;23;20553;-64
2022/11/05 10:23:02;;;;;;;18.83;11.70;;;;;;;9.90;93.75;99063.75;6174463;23;20230;-64
2022/11/05 10:25:32;;;;;;;21.23;12.80;;;;;;;9.93;94.96;99062.66;6171566;23;20212;-64
2022/11/05 10:28:01;;;;;;;24.93;12.90;;;;;;;10.01;95.41;99065.41;6149256;23;20516;-64
2022/11/05 10:30:27;;;;;;;17.70;12.17;;;;;;;10.12;91.84;99067.88;6171579;23;20256;-64
2022/11/05 10:32:58;;;;;;;21.60;13.40;;;;;;;10.17;90.00;99076.13;6174878;23;20211;-64
2022/11/05 10:35:29;;;;;;;20.97;11.87;;;;;;;10.01;93.18;99074.06;6170950;23;20193;-64
2022/11/05 10:37:56;;;;;;;17.90;11.57;;;;;;;9.78;95.71;99078.69;6175390;23;20700;-64
2022/11/05 10:40:36;;;;;;;19.80;11.77;;;;;;;9.77;94.39;99073.63;6145167;23;20270;-64
2022/11/05 10:43:06;;;;;;;19.57;11.43;;;;;;;9.69;98.20;99076.88;6175275;23;20207;-64
2022/11/05 10:45:44;;;;;;;18.13;11.20;;;;;;;9.67;98.67;99079.63;6171310;23;20306;-64
2022/11/05 10:48:32;;;;;;;20.37;12.70;;;;;;;9.62;100.00;99083.59;6175322;23;20208;-64
2022/11/05 10:50:59;;;;;;;16.13;10.83;;;;;;;9.55;99.67;99084.13;6172216;23;20212;-64
2022/11/05 10:53:29;;;;;;;22.30;12.17;;;;;;;9.44;100.00;99081.63;6170875;23;20204;-64
2022/11/05 10:55:57;;;;;;;20.57;12.67;;;;;;;9.22;96.25;99080.03;6174791;23;20208;-64
2022/11/05 10:58:27;;;;;;;15.43;10.30;;;;;;;9.19;98.08;99082.91;6171389;23;20211;-64
2022/11/05 11:01:03;;;;;;;20.20;12.13;;;;;;;9.22;99.05;99075.66;6174899;23;20651;-64
2022/11/05 11:03:34;;;;;;;18.23;12.43;;;;;;;9.38;100.00;99079.56;6171519;23;20254;-64
2022/11/05 11:06:03;;;;;;;20.80;12.20;;;;;;;9.58;100.00;99078.63;6174217;23;20203;-65
2022/11/05 11:08:33;;;;;;;21.10;12.27;;;;;;;9.84;96.37;99072.94;6171197;23;20208;-65
2022/11/05 11:11:03;;;;;;;21.97;11.77;;;;;;;9.92;98.22;99067.06;6174659;23;20254;-64
2022/11/05 11:13:50;;;;;;;26.17;13.00;;;;;;;10.14;98.46;99076.41;6171484;23;20271;-64
2022/11/05 11:16:20;;;;;;;20.50;11.47;;;;;;;10.53;94.94;99083.41;6171010;23;20205;-64
2022/11/05 11:18:53;;;;;;;18.77;10.40;;;;;;;10.67;92.29;99079.53;6174714;23;20263;-64
2022/11/05 11:21:22;;;;;;;24.33;10.50;;;;;;;10.70;89.70;99081.06;6171063;23;20275;-65
2022/11/05 11:23:54;;;;;;;20.10;11.17;;;;;;;10.76;91.29;99081.31;6175110;23;20200;-65
2022/11/05 11:26:23;;;;;;;14.17;9.73;;;;;;;10.89;91.57;99074.97;6171168;23;20538;-65
2022/11/05 11:28:57;;;;;;;17.53;9.93;;;;;;;10.93;90.81;99071.09;6174929;23;20212;-65
2022/11/05 11:31:26;;;;;;;19.80;10.50;;;;;;;10.83;91.22;99075.53;6171164;23;20217;-65
2022/11/05 11:33:59;;;;;;;17.83;9.97;;;;;;;10.63;90.89;99065.94;6175043;23;20253;-65
2022/11/05 11:36:33;;;;;;;18.87;9.07;;;;;;;10.60;90.18;99081.09;6171239;23;20204;-65
2022/11/05 11:39:01;;;;;;;19.80;9.90;;;;;;;10.74;90.07;99079.81;6175899;23;20307;-65
2022/11/05 11:41:32;;;;;;;17.07;8.83;;;;;;;10.68;89.41;99086.41;6173348;23;20216;-65
2022/11/05 11:44:04;;;;;;;15.30;8.70;;;;;;;10.95;90.50;99084.84;6176870;23;20204;-65
2022/11/05 11:46:33;;;;;;;15.53;8.23;;;;;;;11.07;90.62;99083.69;6172944;23;20211;-65
2022/11/05 11:49:00;;;;;;;16.63;7.83;;;;;;;11.29;84.05;99083.47;6176975;23;20197;-65
2022/11/05 11:51:35;;;;;;;12.60;7.60;;;;;;;11.20;85.02;99082.56;6172894;23;20225;-65
2022/11/05 11:54:03;;;;;;;14.33;8.10;;;;;;;11.14;86.49;99083.94;6176773;23;20213;-65
2022/11/05 11:56:42;;;;;;;14.70;8.00;;;;;;;11.10;86.43;99087.84;6171949;23;20304;-65
2022/11/05 11:59:23;;;;;;;10.33;7.53;;;;;;;11.01;86.38;99084.28;6176628;23;20222;-65
2022/11/05 12:02:11;;;;;;;13.50;8.07;;;;;;;11.06;86.02;99089.09;6145833;23;20410;-65
2022/11/05 12:05:06;;;;;;;13.00;7.63;;;;;;;10.76;87.34;99081.31;6170026;23;20439;-65
2022/11/05 12:07:45;;;;;;;11.87;8.10;;;;;;;10.70;88.88;99076.66;6172608;23;20219;-65
2022/11/05 12:10:28;;;;;;;14.57;7.80;;;;;;;10.71;91.47;99080.91;6175956;23;20244;-65
2022/11/05 12:13:23;;;;;;;15.47;8.00;;;;;;;10.78;87.34;99084.59;6173626;23;20210;-65
2022/11/05 12:15:53;;;;;;;15.37;7.53;;;;;;;10.90;90.57;99082.66;6172525;23;20712;-65